TAF Text Data
IDs:
Format:
Raw Decoded Include METAR

Data at: 0616 UTC 07 Dec 2022

KCON 070556Z 0706/0806 12008G18KT 4SM -RA BR BKN010 OVC040
  TEMPO 0706/0708 6SM -RA SCT010 BKN035
  FM070800 12006KT 3SM RA BR OVC007
  FM071600 11001KT 2SM SHRA BR OVC005
  FM080000 21002KT 1/2SM DZ FG OVC003